sensor_id;sensor_type;location;lat;lon;timestamp;temperature;humidity
5759;DHT22;2904;48.788;9.196;2022-12-07T00:01:29;4.30;99.90
5759;DHT22;2904;48.788;9.196;2022-12-07T00:03:57;4.30;99.90
5759;DHT22;2904;48.788;9.196;2022-12-07T00:06:26;4.30;99.90
5759;DHT22;2904;48.788;9.196;2022-12-07T00:08:52;4.40;99.90
5759;DHT22;2904;48.788;9.196;2022-12-07T00:11:21;4.50;99.90
5759;DHT22;2904;48.788;9.196;2022-12-07T00:13:52;4.50;99.90
5759;DHT22;2904;48.788;9.196;2022-12-07T00:16:20;4.40;99.90
5759;DHT22;2904;48.788;9.196;2022-12-07T00:18:46;4.30;99.90
5759;DHT22;2904;48.788;9.196;2022-12-07T00:21:14;4.30;99.90
5759;DHT22;2904;48.788;9.196;2022-12-07T00:23:41;4.30;99.90
5759;DHT22;2904;48.788;9.196;2022-12-07T00:26:10;4.40;99.90
5759;DHT22;2904;48.788;9.196;2022-12-07T00:28:37;4.40;99.90
5759;DHT22;2904;48.788;9.196;2022-12-07T00:31:09;4.40;99.90
5759;DHT22;2904;48.788;9.196;2022-12-07T00:33:35;4.40;99.90
5759;DHT22;2904;48.788;9.196;2022-12-07T00:36:03;4.30;99.90
5759;DHT22;2904;48.788;9.196;2022-12-07T00:38:31;4.30;99.90
5759;DHT22;2904;48.788;9.196;2022-12-07T00:41:11;4.20;99.90
5759;DHT22;2904;48.788;9.196;2022-12-07T00:43:38;4.20;99.90
5759;DHT22;2904;48.788;9.196;2022-12-07T00:46:05;4.20;99.90
5759;DHT22;2904;48.788;9.196;2022-12-07T00:48:30;4.20;99.90
5759;DHT22;2904;48.788;9.196;2022-12-07T00:50:56;4.20;99.90
5759;DHT22;2904;48.788;9.196;2022-12-07T00:53:22;4.20;99.90
5759;DHT22;2904;48.788;9.196;2022-12-07T00:55:48;4.30;99.90
5759;DHT22;2904;48.788;9.196;2022-12-07T00:58:14;4.20;99.90
5759;DHT22;2904;48.788;9.196;2022-12-07T01:00:41;4.20;99.90
5759;DHT22;2904;48.788;9.196;2022-12-07T01:03:08;4.30;99.90
5759;DHT22;2904;48.788;9.196;2022-12-07T01:05:34;4.30;99.90
5759;DHT22;2904;48.788;9.196;2022-12-07T01:08:00;4.30;99.90
5759;DHT22;2904;48.788;9.196;2022-12-07T01:10:27;4.30;99.90
5759;DHT22;2904;48.788;9.196;2022-12-07T01:12:53;4.20;99.90
5759;DHT22;2904;48.788;9.196;2022-12-07T01:15:19;4.20;99.90
5759;DHT22;2904;48.788;9.196;2022-12-07T01:17:44;4.20;99.90
5759;DHT22;2904;48.788;9.196;2022-12-07T01:20:11;4.30;99.90
5759;DHT22;2904;48.788;9.196;2022-12-07T01:22:38;4.30;99.90
5759;DHT22;2904;48.788;9.196;2022-12-07T01:25:05;4.20;99.90
5759;DHT22;2904;48.788;9.196;2022-12-07T01:27:32;4.10;99.90
5759;DHT22;2904;48.788;9.196;2022-12-07T01:29:58;4.10;99.90
5759;DHT22;2904;48.788;9.196;2022-12-07T01:32:24;4.10;99.90
5759;DHT22;2904;48.788;9.196;2022-12-07T01:34:50;4.10;99.90
5759;DHT22;2904;48.788;9.196;2022-12-07T01:37:16;4.20;99.90
5759;DHT22;2904;48.788;9.196;2022-12-07T01:39:41;4.10;99.90
5759;DHT22;2904;48.788;9.196;2022-12-07T01:42:11;4.10;99.90
5759;DHT22;2904;48.788;9.196;2022-12-07T01:45:20;4.00;99.90
5759;DHT22;2904;48.788;9.196;2022-12-07T01:47:57;4.10;99.90
5759;DHT22;2904;48.788;9.196;2022-12-07T01:50:26;4.10;99.90
5759;DHT22;2904;48.788;9.196;2022-12-07T01:52:55;4.10;99.90
5759;DHT22;2904;48.788;9.196;2022-12-07T01:55:21;4.20;99.90
5759;DHT22;2904;48.788;9.196;2022-12-07T01:57:50;4.10;99.90
5759;DHT22;2904;48.788;9.196;2022-12-07T02:00:17;4.10;99.90
5759;DHT22;2904;48.788;9.196;2022-12-07T02:05:40;4.10;99.90
5759;DHT22;2904;48.788;9.196;2022-12-07T02:08:07;4.10;99.90
5759;DHT22;2904;48.788;9.196;2022-12-07T02:10:34;4.10;99.90
5759;DHT22;2904;48.788;9.196;2022-12-07T02:13:06;4.10;99.90
5759;DHT22;2904;48.788;9.196;2022-12-07T02:15:46;4.10;99.90
5759;DHT22;2904;48.788;9.196;2022-12-07T02:18:45;4.10;99.90
5759;DHT22;2904;48.788;9.196;2022-12-07T02:27:25;4.10;99.90
5759;DHT22;2904;48.788;9.196;2022-12-07T02:30:17;4.20;99.90
5759;DHT22;2904;48.788;9.196;2022-12-07T02:33:05;4.20;99.90
5759;DHT22;2904;48.788;9.196;2022-12-07T02:35:42;4.10;99.90
5759;DHT22;2904;48.788;9.196;2022-12-07T02:39:42;4.00;99.90
5759;DHT22;2904;48.788;9.196;2022-12-07T02:42:23;4.00;99.90
5759;DHT22;2904;48.788;9.196;2022-12-07T02:44:50;4.00;99.90
5759;DHT22;2904;48.788;9.196;2022-12-07T02:47:18;4.00;99.90
5759;DHT22;2904;48.788;9.196;2022-12-07T02:49:46;4.10;99.90
5759;DHT22;2904;48.788;9.196;2022-12-07T02:52:12;4.10;99.90
5759;DHT22;2904;48.788;9.196;2022-12-07T02:54:37;4.10;99.90
5759;DHT22;2904;48.788;9.196;2022-12-07T02:57:26;4.10;99.90
5759;DHT22;2904;48.788;9.196;2022-12-07T03:00:17;4.10;99.90
5759;DHT22;2904;48.788;9.196;2022-12-07T03:03:00;4.10;99.90
5759;DHT22;2904;48.788;9.196;2022-12-07T03:05:54;4.20;99.90
5759;DHT22;2904;48.788;9.196;2022-12-07T03:08:32;4.20;99.90
5759;DHT22;2904;48.788;9.196;2022-12-07T03:11:03;4.20;99.90
5759;DHT22;2904;48.788;9.196;2022-12-07T03:14:17;4.20;99.90
5759;DHT22;2904;48.788;9.196;2022-12-07T03:16:57;4.20;99.90
5759;DHT22;2904;48.788;9.196;2022-12-07T03:19:24;4.30;99.90
5759;DHT22;2904;48.788;9.196;2022-12-07T03:22:04;4.30;99.90
5759;DHT22;2904;48.788;9.196;2022-12-07T03:24:42;4.30;99.90
5759;DHT22;2904;48.788;9.196;2022-12-07T03:27:24;4.30;99.90
5759;DHT22;2904;48.788;9.196;2022-12-07T03:30:14;4.40;99.90
5759;DHT22;2904;48.788;9.196;2022-12-07T03:32:55;4.40;99.90
5759;DHT22;2904;48.788;9.196;2022-12-07T03:35:32;4.40;99.90
5759;DHT22;2904;48.788;9.196;2022-12-07T03:38:15;4.40;99.90
5759;DHT22;2904;48.788;9.196;2022-12-07T03:41:10;4.40;99.90
5759;DHT22;2904;48.788;9.196;2022-12-07T03:43:38;4.30;99.90
5759;DHT22;2904;48.788;9.196;2022-12-07T03:47:46;4.40;99.90
5759;DHT22;2904;48.788;9.196;2022-12-07T03:50:28;4.30;99.90
5759;DHT22;2904;48.788;9.196;2022-12-07T03:53:00;4.30;99.90
5759;DHT22;2904;48.788;9.196;2022-12-07T03:55:31;4.30;99.90
5759;DHT22;2904;48.788;9.196;2022-12-07T03:58:07;4.30;99.90
5759;DHT22;2904;48.788;9.196;2022-12-07T04:00:35;4.20;99.90
5759;DHT22;2904;48.788;9.196;2022-12-07T04:03:01;4.20;99.90
5759;DHT22;2904;48.788;9.196;2022-12-07T04:05:26;4.20;99.90
5759;DHT22;2904;48.788;9.196;2022-12-07T04:07:52;4.30;99.90
5759;DHT22;2904;48.788;9.196;2022-12-07T04:10:19;4.30;99.90
5759;DHT22;2904;48.788;9.196;2022-12-07T04:12:44;4.30;99.90
5759;DHT22;2904;48.788;9.196;2022-12-07T04:15:10;4.20;99.90
5759;DHT22;2904;48.788;9.196;2022-12-07T04:17:37;4.20;99.90
5759;DHT22;2904;48.788;9.196;2022-12-07T04:20:03;4.20;99.90
5759;DHT22;2904;48.788;9.196;2022-12-07T04:22:29;4.10;99.90
5759;DHT22;2904;48.788;9.196;2022-12-07T04:24:55;4.10;99.90
5759;DHT22;2904;48.788;9.196;2022-12-07T04:27:20;4.00;99.90
5759;DHT22;2904;48.788;9.196;2022-12-07T04:29:46;4.00;99.90
5759;DHT22;2904;48.788;9.196;2022-12-07T04:32:11;4.00;99.90
5759;DHT22;2904;48.788;9.196;2022-12-07T04:34:37;4.00;99.90
5759;DHT22;2904;48.788;9.196;2022-12-07T04:37:03;4.00;99.90
5759;DHT22;2904;48.788;9.196;2022-12-07T04:39:32;3.90;99.90
5759;DHT22;2904;48.788;9.196;2022-12-07T04:41:59;3.90;99.90
5759;DHT22;2904;48.788;9.196;2022-12-07T04:44:27;4.00;99.90
5759;DHT22;2904;48.788;9.196;2022-12-07T04:46:53;4.00;99.90
5759;DHT22;2904;48.788;9.196;2022-12-07T04:49:19;4.00;99.90
5759;DHT22;2904;48.788;9.196;2022-12-07T04:51:47;3.90;99.90
5759;DHT22;2904;48.788;9.196;2022-12-07T04:54:14;3.90;99.90
5759;DHT22;2904;48.788;9.196;2022-12-07T04:56:41;3.90;99.90
5759;DHT22;2904;48.788;9.196;2022-12-07T04:59:06;3.90;99.90
5759;DHT22;2904;48.788;9.196;2022-12-07T05:01:32;3.90;99.90
5759;DHT22;2904;48.788;9.196;2022-12-07T05:03:59;3.90;99.90
5759;DHT22;2904;48.788;9.196;2022-12-07T05:06:25;3.90;99.90
5759;DHT22;2904;48.788;9.196;2022-12-07T05:08:51;3.90;99.90
5759;DHT22;2904;48.788;9.196;2022-12-07T05:11:17;3.90;99.90
5759;DHT22;2904;48.788;9.196;2022-12-07T05:14:03;3.90;99.90
5759;DHT22;2904;48.788;9.196;2022-12-07T05:16:29;3.90;99.90
5759;DHT22;2904;48.788;9.196;2022-12-07T05:18:55;3.90;99.90
5759;DHT22;2904;48.788;9.196;2022-12-07T05:21:21;3.80;99.90
5759;DHT22;2904;48.788;9.196;2022-12-07T05:23:47;3.90;99.90
5759;DHT22;2904;48.788;9.196;2022-12-07T05:26:12;3.80;99.90
5759;DHT22;2904;48.788;9.196;2022-12-07T05:28:38;3.80;99.90
5759;DHT22;2904;48.788;9.196;2022-12-07T05:31:04;3.70;99.90
5759;DHT22;2904;48.788;9.196;2022-12-07T05:33:29;3.70;99.90
5759;DHT22;2904;48.788;9.196;2022-12-07T05:35:55;3.60;99.90
5759;DHT22;2904;48.788;9.196;2022-12-07T05:38:21;3.60;99.90
5759;DHT22;2904;48.788;9.196;2022-12-07T05:40:46;3.50;99.90
5759;DHT22;2904;48.788;9.196;2022-12-07T05:43:12;3.50;99.90
5759;DHT22;2904;48.788;9.196;2022-12-07T05:45:38;3.40;99.90
5759;DHT22;2904;48.788;9.196;2022-12-07T05:48:04;3.40;99.90
5759;DHT22;2904;48.788;9.196;2022-12-07T05:50:30;3.40;99.90
5759;DHT22;2904;48.788;9.196;2022-12-07T05:52:55;3.30;99.90
5759;DHT22;2904;48.788;9.196;2022-12-07T05:55:21;3.30;99.90
5759;DHT22;2904;48.788;9.196;2022-12-07T05:57:47;3.40;99.90
5759;DHT22;2904;48.788;9.196;2022-12-07T06:00:32;3.30;99.90
5759;DHT22;2904;48.788;9.196;2022-12-07T06:02:58;3.70;99.90
5759;DHT22;2904;48.788;9.196;2022-12-07T06:05:24;3.40;99.90
5759;DHT22;2904;48.788;9.196;2022-12-07T06:07:49;3.40;99.90
5759;DHT22;2904;48.788;9.196;2022-12-07T06:10:15;3.40;99.90
5759;DHT22;2904;48.788;9.196;2022-12-07T06:12:41;3.50;99.90
5759;DHT22;2904;48.788;9.196;2022-12-07T06:15:09;3.50;99.90
5759;DHT22;2904;48.788;9.196;2022-12-07T06:17:35;3.50;99.90
5759;DHT22;2904;48.788;9.196;2022-12-07T06:20:01;3.50;99.90
5759;DHT22;2904;48.788;9.196;2022-12-07T06:22:27;3.50;99.90
5759;DHT22;2904;48.788;9.196;2022-12-07T06:24:53;3.50;99.90
5759;DHT22;2904;48.788;9.196;2022-12-07T06:27:18;3.50;99.90
5759;DHT22;2904;48.788;9.196;2022-12-07T06:29:44;3.50;99.90
5759;DHT22;2904;48.788;9.196;2022-12-07T06:32:09;3.50;99.90
5759;DHT22;2904;48.788;9.196;2022-12-07T06:34:35;3.60;99.90
5759;DHT22;2904;48.788;9.196;2022-12-07T06:37:01;3.60;99.90
5759;DHT22;2904;48.788;9.196;2022-12-07T06:39:28;3.50;99.90
5759;DHT22;2904;48.788;9.196;2022-12-07T06:41:54;3.50;99.90
5759;DHT22;2904;48.788;9.196;2022-12-07T06:44:20;3.50;99.90
5759;DHT22;2904;48.788;9.196;2022-12-07T06:46:47;3.50;99.90
5759;DHT22;2904;48.788;9.196;2022-12-07T06:49:13;3.60;99.90
5759;DHT22;2904;48.788;9.196;2022-12-07T06:51:38;3.60;99.90
5759;DHT22;2904;48.788;9.196;2022-12-07T06:54:11;3.60;99.90
5759;DHT22;2904;48.788;9.196;2022-12-07T06:56:37;3.80;99.90
5759;DHT22;2904;48.788;9.196;2022-12-07T06:59:04;3.60;99.90
5759;DHT22;2904;48.788;9.196;2022-12-07T07:01:32;4.00;99.90
5759;DHT22;2904;48.788;9.196;2022-12-07T07:03:58;3.60;99.90
5759;DHT22;2904;48.788;9.196;2022-12-07T07:06:24;3.70;99.90
5759;DHT22;2904;48.788;9.196;2022-12-07T07:08:49;3.70;99.90
5759;DHT22;2904;48.788;9.196;2022-12-07T07:11:15;3.70;99.90
5759;DHT22;2904;48.788;9.196;2022-12-07T07:13:40;3.70;99.90
5759;DHT22;2904;48.788;9.196;2022-12-07T07:16:07;3.70;99.90
5759;DHT22;2904;48.788;9.196;2022-12-07T07:18:33;3.70;99.90
5759;DHT22;2904;48.788;9.196;2022-12-07T07:20:59;3.80;99.90
5759;DHT22;2904;48.788;9.196;2022-12-07T07:23:24;3.80;99.90
5759;DHT22;2904;48.788;9.196;2022-12-07T07:25:50;3.80;99.90
5759;DHT22;2904;48.788;9.196;2022-12-07T07:28:16;3.80;99.90
5759;DHT22;2904;48.788;9.196;2022-12-07T07:30:42;3.90;99.90
5759;DHT22;2904;48.788;9.196;2022-12-07T07:33:09;3.90;99.90
5759;DHT22;2904;48.788;9.196;2022-12-07T07:35:35;3.90;99.90
5759;DHT22;2904;48.788;9.196;2022-12-07T07:38:01;3.90;99.90
5759;DHT22;2904;48.788;9.196;2022-12-07T07:40:28;4.10;99.90
5759;DHT22;2904;48.788;9.196;2022-12-07T07:42:55;4.30;99.90
5759;DHT22;2904;48.788;9.196;2022-12-07T07:45:22;4.40;99.90
5759;DHT22;2904;48.788;9.196;2022-12-07T07:47:49;4.40;99.90
5759;DHT22;2904;48.788;9.196;2022-12-07T07:50:15;4.30;99.90
5759;DHT22;2904;48.788;9.196;2022-12-07T07:52:41;6.40;99.90
5759;DHT22;2904;48.788;9.196;2022-12-07T07:55:07;4.30;99.90
5759;DHT22;2904;48.788;9.196;2022-12-07T07:57:35;4.20;99.90
5759;DHT22;2904;48.788;9.196;2022-12-07T08:00:05;4.20;99.90
5759;DHT22;2904;48.788;9.196;2022-12-07T08:02:31;4.20;99.90
5759;DHT22;2904;48.788;9.196;2022-12-07T08:04:57;4.20;99.90
5759;DHT22;2904;48.788;9.196;2022-12-07T08:07:23;4.20;99.90
5759;DHT22;2904;48.788;9.196;2022-12-07T08:09:48;4.20;99.90
5759;DHT22;2904;48.788;9.196;2022-12-07T08:12:14;4.30;99.90
5759;DHT22;2904;48.788;9.196;2022-12-07T08:14:39;4.30;99.90
5759;DHT22;2904;48.788;9.196;2022-12-07T08:17:05;4.30;99.90
5759;DHT22;2904;48.788;9.196;2022-12-07T08:19:31;4.30;99.90
5759;DHT22;2904;48.788;9.196;2022-12-07T08:21:57;4.40;99.90
5759;DHT22;2904;48.788;9.196;2022-12-07T08:24:23;4.40;99.90
5759;DHT22;2904;48.788;9.196;2022-12-07T08:26:50;4.40;99.90
5759;DHT22;2904;48.788;9.196;2022-12-07T08:29:16;4.50;99.90
5759;DHT22;2904;48.788;9.196;2022-12-07T08:31:42;4.50;99.90
5759;DHT22;2904;48.788;9.196;2022-12-07T08:34:09;4.50;99.90
5759;DHT22;2904;48.788;9.196;2022-12-07T08:36:36;4.50;99.90
5759;DHT22;2904;48.788;9.196;2022-12-07T08:39:03;4.60;99.90
5759;DHT22;2904;48.788;9.196;2022-12-07T08:41:28;4.60;99.90
5759;DHT22;2904;48.788;9.196;2022-12-07T08:43:54;4.60;99.90
5759;DHT22;2904;48.788;9.196;2022-12-07T08:46:55;4.60;99.90
5759;DHT22;2904;48.788;9.196;2022-12-07T08:49:28;4.70;99.90
5759;DHT22;2904;48.788;9.196;2022-12-07T08:51:56;4.70;99.90
5759;DHT22;2904;48.788;9.196;2022-12-07T08:54:22;4.80;99.90
5759;DHT22;2904;48.788;9.196;2022-12-07T08:56:48;4.80;99.90
5759;DHT22;2904;48.788;9.196;2022-12-07T08:59:16;4.80;99.90
5759;DHT22;2904;48.788;9.196;2022-12-07T09:01:42;4.80;99.90
5759;DHT22;2904;48.788;9.196;2022-12-07T09:04:08;4.90;99.90
5759;DHT22;2904;48.788;9.196;2022-12-07T09:06:34;5.00;99.90
5759;DHT22;2904;48.788;9.196;2022-12-07T09:09:01;5.00;99.90
5759;DHT22;2904;48.788;9.196;2022-12-07T09:11:27;5.00;99.90
5759;DHT22;2904;48.788;9.196;2022-12-07T09:13:53;5.10;99.90
5759;DHT22;2904;48.788;9.196;2022-12-07T09:16:19;5.20;99.90
5759;DHT22;2904;48.788;9.196;2022-12-07T09:18:45;5.20;99.90
5759;DHT22;2904;48.788;9.196;2022-12-07T09:21:10;5.20;99.90
5759;DHT22;2904;48.788;9.196;2022-12-07T09:23:36;5.30;99.90
5759;DHT22;2904;48.788;9.196;2022-12-07T09:26:05;5.30;99.90
5759;DHT22;2904;48.788;9.196;2022-12-07T09:28:31;4.10;99.90
5759;DHT22;2904;48.788;9.196;2022-12-07T09:30:57;5.30;99.90
5759;DHT22;2904;48.788;9.196;2022-12-07T09:33:23;5.40;99.90
5759;DHT22;2904;48.788;9.196;2022-12-07T09:35:50;5.40;99.90
5759;DHT22;2904;48.788;9.196;2022-12-07T09:38:16;5.30;99.90
5759;DHT22;2904;48.788;9.196;2022-12-07T09:40:42;5.40;99.90
5759;DHT22;2904;48.788;9.196;2022-12-07T09:43:20;5.60;99.90
5759;DHT22;2904;48.788;9.196;2022-12-07T09:45:48;5.70;99.90
5759;DHT22;2904;48.788;9.196;2022-12-07T09:48:18;5.60;99.90
5759;DHT22;2904;48.788;9.196;2022-12-07T09:50:45;5.70;99.90
5759;DHT22;2904;48.788;9.196;2022-12-07T09:53:20;5.60;99.90
5759;DHT22;2904;48.788;9.196;2022-12-07T09:55:48;5.70;99.90
5759;DHT22;2904;48.788;9.196;2022-12-07T09:58:26;5.80;99.90
5759;DHT22;2904;48.788;9.196;2022-12-07T10:00:57;5.80;99.90
5759;DHT22;2904;48.788;9.196;2022-12-07T10:03:29;6.00;99.90
5759;DHT22;2904;48.788;9.196;2022-12-07T10:05:55;6.20;99.90
5759;DHT22;2904;48.788;9.196;2022-12-07T10:08:21;6.20;99.90
5759;DHT22;2904;48.788;9.196;2022-12-07T10:10:51;6.20;99.90
5759;DHT22;2904;48.788;9.196;2022-12-07T10:13:21;6.10;99.90
5759;DHT22;2904;48.788;9.196;2022-12-07T10:16:06;6.20;99.90
5759;DHT22;2904;48.788;9.196;2022-12-07T10:18:35;6.10;99.90
5759;DHT22;2904;48.788;9.196;2022-12-07T10:21:22;6.00;99.90
5759;DHT22;2904;48.788;9.196;2022-12-07T10:24:00;6.10;99.90
5759;DHT22;2904;48.788;9.196;2022-12-07T10:26:49;6.00;99.90
5759;DHT22;2904;48.788;9.196;2022-12-07T10:29:23;5.80;99.90
5759;DHT22;2904;48.788;9.196;2022-12-07T10:31:55;5.80;99.90
5759;DHT22;2904;48.788;9.196;2022-12-07T10:34:29;5.80;99.90
5759;DHT22;2904;48.788;9.196;2022-12-07T10:37:18;5.80;99.90
5759;DHT22;2904;48.788;9.196;2022-12-07T10:39:51;5.80;99.90
5759;DHT22;2904;48.788;9.196;2022-12-07T10:42:20;5.90;99.90
5759;DHT22;2904;48.788;9.196;2022-12-07T10:44:48;5.90;99.90
5759;DHT22;2904;48.788;9.196;2022-12-07T10:47:35;5.80;99.90
5759;DHT22;2904;48.788;9.196;2022-12-07T10:50:27;5.80;99.90
5759;DHT22;2904;48.788;9.196;2022-12-07T10:58:58;5.60;99.90
5759;DHT22;2904;48.788;9.196;2022-12-07T11:06:33;5.50;99.90
5759;DHT22;2904;48.788;9.196;2022-12-07T11:12:27;5.50;99.90
5759;DHT22;2904;48.788;9.196;2022-12-07T11:15:28;5.60;99.90
5759;DHT22;2904;48.788;9.196;2022-12-07T11:18:22;5.60;99.90
5759;DHT22;2904;48.788;9.196;2022-12-07T11:21:08;5.60;99.90
5759;DHT22;2904;48.788;9.196;2022-12-07T11:24:09;5.60;99.90
5759;DHT22;2904;48.788;9.196;2022-12-07T11:36:53;5.50;99.90
5759;DHT22;2904;48.788;9.196;2022-12-07T11:39:50;5.40;99.90
5759;DHT22;2904;48.788;9.196;2022-12-07T11:42:24;5.40;99.90
5759;DHT22;2904;48.788;9.196;2022-12-07T11:45:03;5.50;99.90
5759;DHT22;2904;48.788;9.196;2022-12-07T11:47:48;5.50;99.90
5759;DHT22;2904;48.788;9.196;2022-12-07T11:50:40;5.50;99.90
5759;DHT22;2904;48.788;9.196;2022-12-07T11:53:18;5.50;99.90
5759;DHT22;2904;48.788;9.196;2022-12-07T11:56:16;5.40;99.90
5759;DHT22;2904;48.788;9.196;2022-12-07T11:58:54;5.20;99.90
5759;DHT22;2904;48.788;9.196;2022-12-07T12:01:41;5.20;99.90
5759;DHT22;2904;48.788;9.196;2022-12-07T12:09:26;5.30;99.90
5759;DHT22;2904;48.788;9.196;2022-12-07T12:13:50;5.20;99.90
5759;DHT22;2904;48.788;9.196;2022-12-07T12:20:40;5.10;99.90
5759;DHT22;2904;48.788;9.196;2022-12-07T12:24:58;5.10;99.90
5759;DHT22;2904;48.788;9.196;2022-12-07T12:27:31;5.10;99.90
5759;DHT22;2904;48.788;9.196;2022-12-07T12:30:00;5.10;99.90
5759;DHT22;2904;48.788;9.196;2022-12-07T12:32:39;5.10;99.90
5759;DHT22;2904;48.788;9.196;2022-12-07T12:35:35;5.20;99.90
5759;DHT22;2904;48.788;9.196;2022-12-07T12:40:39;5.00;99.90
5759;DHT22;2904;48.788;9.196;2022-12-07T12:43:46;5.00;99.90
5759;DHT22;2904;48.788;9.196;2022-12-07T12:53:12;5.10;99.90
5759;DHT22;2904;48.788;9.196;2022-12-07T12:58:36;5.10;99.90
5759;DHT22;2904;48.788;9.196;2022-12-07T13:02:47;5.20;99.90
5759;DHT22;2904;48.788;9.196;2022-12-07T13:05:19;5.20;99.90
5759;DHT22;2904;48.788;9.196;2022-12-07T13:08:30;5.00;99.90
5759;DHT22;2904;48.788;9.196;2022-12-07T13:11:32;5.00;99.90
5759;DHT22;2904;48.788;9.196;2022-12-07T13:14:41;5.10;99.90
5759;DHT22;2904;48.788;9.196;2022-12-07T13:17:11;5.10;99.90
5759;DHT22;2904;48.788;9.196;2022-12-07T13:20:20;5.10;99.90
5759;DHT22;2904;48.788;9.196;2022-12-07T13:23:06;5.20;99.90
5759;DHT22;2904;48.788;9.196;2022-12-07T13:25:59;5.20;99.90
5759;DHT22;2904;48.788;9.196;2022-12-07T13:28:33;5.20;99.90
5759;DHT22;2904;48.788;9.196;2022-12-07T13:37:28;5.30;99.90
5759;DHT22;2904;48.788;9.196;2022-12-07T13:39:57;5.20;99.90
5759;DHT22;2904;48.788;9.196;2022-12-07T13:42:30;5.20;99.90
5759;DHT22;2904;48.788;9.196;2022-12-07T13:44:58;5.20;99.90
5759;DHT22;2904;48.788;9.196;2022-12-07T13:47:36;5.20;99.90
5759;DHT22;2904;48.788;9.196;2022-12-07T13:50:20;5.20;99.90
5759;DHT22;2904;48.788;9.196;2022-12-07T13:52:47;5.20;99.90
5759;DHT22;2904;48.788;9.196;2022-12-07T13:55:16;5.20;99.90
5759;DHT22;2904;48.788;9.196;2022-12-07T13:57:49;5.20;99.90
5759;DHT22;2904;48.788;9.196;2022-12-07T14:00:19;5.10;99.90
5759;DHT22;2904;48.788;9.196;2022-12-07T14:02:59;5.00;99.90
5759;DHT22;2904;48.788;9.196;2022-12-07T14:05:27;5.00;99.90
5759;DHT22;2904;48.788;9.196;2022-12-07T14:08:03;5.00;99.90
5759;DHT22;2904;48.788;9.196;2022-12-07T14:10:34;5.00;99.90
5759;DHT22;2904;48.788;9.196;2022-12-07T14:13:02;5.10;99.90
5759;DHT22;2904;48.788;9.196;2022-12-07T14:15:30;5.10;99.90
5759;DHT22;2904;48.788;9.196;2022-12-07T14:17:58;5.10;99.90
5759;DHT22;2904;48.788;9.196;2022-12-07T14:20:38;5.20;99.90
5759;DHT22;2904;48.788;9.196;2022-12-07T14:23:19;5.30;99.90
5759;DHT22;2904;48.788;9.196;2022-12-07T14:25:47;5.40;99.90
5759;DHT22;2904;48.788;9.196;2022-12-07T14:28:35;5.40;99.90
5759;DHT22;2904;48.788;9.196;2022-12-07T14:31:01;5.50;99.90
5759;DHT22;2904;48.788;9.196;2022-12-07T14:33:28;5.40;99.90
5759;DHT22;2904;48.788;9.196;2022-12-07T14:35:54;5.30;99.90
5759;DHT22;2904;48.788;9.196;2022-12-07T14:38:25;5.30;99.90
5759;DHT22;2904;48.788;9.196;2022-12-07T14:40:53;5.30;99.90
5759;DHT22;2904;48.788;9.196;2022-12-07T14:43:19;5.30;99.90
5759;DHT22;2904;48.788;9.196;2022-12-07T14:45:45;5.20;99.90
5759;DHT22;2904;48.788;9.196;2022-12-07T14:48:12;5.10;99.90
5759;DHT22;2904;48.788;9.196;2022-12-07T14:50:49;5.20;99.90
5759;DHT22;2904;48.788;9.196;2022-12-07T14:53:18;5.10;99.90
5759;DHT22;2904;48.788;9.196;2022-12-07T14:55:46;5.10;99.90
5759;DHT22;2904;48.788;9.196;2022-12-07T14:58:17;5.10;99.90
5759;DHT22;2904;48.788;9.196;2022-12-07T15:00:43;5.20;99.90
5759;DHT22;2904;48.788;9.196;2022-12-07T15:03:09;5.10;99.90
5759;DHT22;2904;48.788;9.196;2022-12-07T15:05:35;5.10;99.90
5759;DHT22;2904;48.788;9.196;2022-12-07T15:08:01;5.00;99.90
5759;DHT22;2904;48.788;9.196;2022-12-07T15:10:30;5.00;99.90
5759;DHT22;2904;48.788;9.196;2022-12-07T15:13:02;5.00;99.90
5759;DHT22;2904;48.788;9.196;2022-12-07T15:15:48;5.00;99.90
5759;DHT22;2904;48.788;9.196;2022-12-07T15:18:14;5.20;99.90
5759;DHT22;2904;48.788;9.196;2022-12-07T15:20:40;5.00;99.90
5759;DHT22;2904;48.788;9.196;2022-12-07T15:23:06;5.00;99.90
5759;DHT22;2904;48.788;9.196;2022-12-07T15:25:31;4.90;99.90
5759;DHT22;2904;48.788;9.196;2022-12-07T15:27:57;4.90;99.90
5759;DHT22;2904;48.788;9.196;2022-12-07T15:30:22;4.80;99.90
5759;DHT22;2904;48.788;9.196;2022-12-07T15:32:52;4.80;99.90
5759;DHT22;2904;48.788;9.196;2022-12-07T15:35:19;4.80;99.90
5759;DHT22;2904;48.788;9.196;2022-12-07T15:37:44;4.80;99.90
5759;DHT22;2904;48.788;9.196;2022-12-07T15:40:11;4.70;99.90
5759;DHT22;2904;48.788;9.196;2022-12-07T15:42:37;4.70;99.90
5759;DHT22;2904;48.788;9.196;2022-12-07T15:45:04;4.70;99.90
5759;DHT22;2904;48.788;9.196;2022-12-07T15:47:38;4.70;99.90
5759;DHT22;2904;48.788;9.196;2022-12-07T15:50:07;4.80;99.90
5759;DHT22;2904;48.788;9.196;2022-12-07T15:52:33;4.70;99.90
5759;DHT22;2904;48.788;9.196;2022-12-07T15:54:59;4.60;99.90
5759;DHT22;2904;48.788;9.196;2022-12-07T15:57:27;4.50;99.90
5759;DHT22;2904;48.788;9.196;2022-12-07T15:59:53;4.40;99.90
5759;DHT22;2904;48.788;9.196;2022-12-07T16:02:19;4.40;99.90
5759;DHT22;2904;48.788;9.196;2022-12-07T16:04:44;4.40;99.90
5759;DHT22;2904;48.788;9.196;2022-12-07T16:07:10;4.40;99.90
5759;DHT22;2904;48.788;9.196;2022-12-07T16:09:37;4.40;99.90
5759;DHT22;2904;48.788;9.196;2022-12-07T16:12:03;4.40;99.90
5759;DHT22;2904;48.788;9.196;2022-12-07T16:14:29;4.40;99.90
5759;DHT22;2904;48.788;9.196;2022-12-07T16:16:57;4.40;99.90
5759;DHT22;2904;48.788;9.196;2022-12-07T16:19:23;4.50;99.90
5759;DHT22;2904;48.788;9.196;2022-12-07T16:21:48;4.50;99.90
5759;DHT22;2904;48.788;9.196;2022-12-07T16:24:14;4.40;99.90
5759;DHT22;2904;48.788;9.196;2022-12-07T16:26:40;4.40;99.90
5759;DHT22;2904;48.788;9.196;2022-12-07T16:29:06;4.50;99.90
5759;DHT22;2904;48.788;9.196;2022-12-07T16:31:32;4.50;99.90
5759;DHT22;2904;48.788;9.196;2022-12-07T16:33:58;4.50;99.90
5759;DHT22;2904;48.788;9.196;2022-12-07T16:36:25;4.40;99.90
5759;DHT22;2904;48.788;9.196;2022-12-07T16:38:52;4.40;99.90
5759;DHT22;2904;48.788;9.196;2022-12-07T16:41:18;4.30;99.90
5759;DHT22;2904;48.788;9.196;2022-12-07T16:43:43;4.30;99.90
5759;DHT22;2904;48.788;9.196;2022-12-07T16:46:10;4.30;99.90
5759;DHT22;2904;48.788;9.196;2022-12-07T16:48:39;4.20;99.90
5759;DHT22;2904;48.788;9.196;2022-12-07T16:51:07;4.20;99.90
5759;DHT22;2904;48.788;9.196;2022-12-07T16:53:34;4.20;99.90
5759;DHT22;2904;48.788;9.196;2022-12-07T16:56:01;4.10;99.90
5759;DHT22;2904;48.788;9.196;2022-12-07T16:58:27;4.10;99.90
5759;DHT22;2904;48.788;9.196;2022-12-07T17:00:53;4.00;99.90
5759;DHT22;2904;48.788;9.196;2022-12-07T17:03:18;4.00;99.90
5759;DHT22;2904;48.788;9.196;2022-12-07T17:05:46;3.90;99.90
5759;DHT22;2904;48.788;9.196;2022-12-07T17:08:12;3.90;99.90
5759;DHT22;2904;48.788;9.196;2022-12-07T17:10:40;3.90;99.90
5759;DHT22;2904;48.788;9.196;2022-12-07T17:13:06;3.80;99.90
5759;DHT22;2904;48.788;9.196;2022-12-07T17:16:02;3.80;99.90
5759;DHT22;2904;48.788;9.196;2022-12-07T17:18:30;3.80;99.90
5759;DHT22;2904;48.788;9.196;2022-12-07T17:21:03;3.80;99.90
5759;DHT22;2904;48.788;9.196;2022-12-07T17:23:29;3.90;99.90
5759;DHT22;2904;48.788;9.196;2022-12-07T17:25:55;3.90;99.90
5759;DHT22;2904;48.788;9.196;2022-12-07T17:28:21;4.00;99.90
5759;DHT22;2904;48.788;9.196;2022-12-07T17:30:46;4.00;99.90
5759;DHT22;2904;48.788;9.196;2022-12-07T17:33:12;4.10;99.90
5759;DHT22;2904;48.788;9.196;2022-12-07T17:35:38;4.10;99.90
5759;DHT22;2904;48.788;9.196;2022-12-07T17:38:03;4.20;99.90
5759;DHT22;2904;48.788;9.196;2022-12-07T17:40:29;4.20;99.90
5759;DHT22;2904;48.788;9.196;2022-12-07T17:42:55;4.20;99.90
5759;DHT22;2904;48.788;9.196;2022-12-07T17:45:20;4.20;99.90
5759;DHT22;2904;48.788;9.196;2022-12-07T17:47:46;4.20;99.90
5759;DHT22;2904;48.788;9.196;2022-12-07T17:50:11;4.20;99.90